ヤクーツク の空港の天気 - METARとTAF

ヤクーツク空港 ( UEEE / YKS ) - ロシア ヤクーツク
飛行場実況気象(Metar)
観測時間04/22 01:30 YAKT (04/21 16:30 UTC)
風向・風速南西 3m/s
視程10km以上
天気現象
なし
気温-5℃
湿度93%
気圧1007hPa
METARUEEE 211630Z 22003MPS CAVOK M05/M06 Q1007 R23L/350045 NOSIG RMK QFE746
過去の天気等 Google飛行場航空写真 Wunderground天気予報

過去48時間のMETAR

飛行場予報(TAF)
発表時間: 4/21 20:00 YAKT (4/21 11:00 UTC)
予報対象時間: 21日21時 YAKT ~ 23日3時 YAKT
風向・風速西 7m/s 瞬間風速 13m/s
視程3200m
天気現象弱いしゅう雪雨
全天の4割程度の雲 雲底高度 180m
全天の8割程度の積乱雲 雲底高度 460m
全天を覆う雲 雲底高度 2130m
21日21時 YAKT ~ 22日3時 YAKT に一時的に
視程500m
天気現象強いしゅう雪
全天を覆う雲 鉛直視程 90m
TAF UEEE 211100Z 2112/2218 27007G13MPS 3200 -SHSNRA SCT006 BKN015CB OVC070
TEMPO 2112/2118 0500 +SHSN VV003